Time;durP1;ratioP1;P1;durP2;ratioP2;P2;SDS_P1;SDS_P2;PMS_P1;PMS_P2;Temp;Humidity;BMP_temperature;BMP_pressure;BME280_temperature;BME280_humidity;BME280_pressure;Samples;Min_cycle;Max_cycle;Signal;HPM_P1;HPM_P2
2022/03/31 00:00:50;;;;;;;7.25;3.25;;;;;;;10.88;61.12;96986.13;5095024;28;20046;-53
2022/03/31 00:03:44;;;;;;;7.07;3.95;;;;;;;10.88;61.62;96986.13;5093863;28;20310;-53
2022/03/31 00:06:29;;;;;;;7.65;4.13;;;;;;;10.80;61.85;96976.41;5079385;28;20715;-50
2022/03/31 00:09:14;;;;;;;7.40;3.88;;;;;;;10.77;62.02;96981.13;5094820;28;20044;-51
2022/03/31 00:11:59;;;;;;;8.98;3.85;;;;;;;10.75;62.08;96975.19;5095142;28;20416;-50
2022/03/31 00:14:43;;;;;;;11.57;4.55;;;;;;;10.66;62.83;96971.69;5094454;28;20040;-49
2022/03/31 00:17:28;;;;;;;7.13;4.20;;;;;;;10.66;62.90;96969.88;5093517;28;20036;-52
2022/03/31 00:20:14;;;;;;;7.13;3.70;;;;;;;10.66;62.68;96969.88;5093581;28;20084;-51
2022/03/31 00:22:59;;;;;;;9.23;4.03;;;;;;;10.59;63.17;96974.09;5094257;28;20047;-50
2022/03/31 00:25:44;;;;;;;8.20;3.88;;;;;;;10.59;62.67;96974.09;5094299;28;20439;-52
2022/03/31 00:28:28;;;;;;;7.70;3.92;;;;;;;10.61;62.32;96972.13;5093950;28;20043;-54
2022/03/31 00:31:13;;;;;;;9.52;4.57;;;;;;;10.58;63.05;96964.56;5094359;28;20044;-50
2022/03/31 00:34:22;;;;;;;10.10;5.57;;;;;;;10.36;64.21;96961.41;5094548;28;20410;-51
2022/03/31 00:37:23;;;;;;;11.25;6.72;;;;;;;10.31;64.26;96953.16;5086438;28;20093;-53
2022/03/31 00:40:10;;;;;;;13.13;7.47;;;;;;;10.01;65.12;96947.28;5094353;28;20043;-51
2022/03/31 00:42:57;;;;;;;16.55;8.02;;;;;;;10.02;64.82;96951.56;5094416;28;20067;-53
2022/03/31 00:45:48;;;;;;;15.90;8.90;;;;;;;9.82;66.35;96947.25;5093332;28;20201;-54
2022/03/31 00:48:32;;;;;;;22.75;10.73;;;;;;;9.59;67.00;96945.00;5094059;28;20044;-51
2022/03/31 00:51:17;;;;;;;20.65;10.18;;;;;;;9.60;66.81;96951.03;5093886;28;20036;-52
2022/03/31 00:54:02;;;;;;;16.70;10.13;;;;;;;9.67;66.29;96946.91;5093452;28;20040;-49
2022/03/31 00:56:49;;;;;;;20.40;10.75;;;;;;;9.89;65.31;96947.47;5091291;28;20051;-52
2022/03/31 00:59:44;;;;;;;16.77;8.30;;;;;;;9.85;64.99;96948.75;5093980;28;20121;-53
2022/03/31 01:02:32;;;;;;;22.63;9.95;;;;;;;9.92;64.71;96955.03;5093279;28;20399;-52
2022/03/31 01:05:16;;;;;;;16.55;7.90;;;;;;;10.03;64.34;96963.66;5092427;28;20040;-53
2022/03/31 01:08:02;;;;;;;20.08;8.93;;;;;;;9.93;65.45;96948.00;5093306;28;20052;-53
2022/03/31 01:10:49;;;;;;;13.95;7.95;;;;;;;9.91;64.60;96950.78;5093466;28;20047;-52
2022/03/31 01:13:33;;;;;;;10.50;6.65;;;;;;;9.76;65.47;96937.34;5093119;28;20062;-53
2022/03/31 01:16:18;;;;;;;22.00;10.75;;;;;;;9.63;67.05;96937.69;5093240;28;20552;-54
2022/03/31 01:19:08;;;;;;;23.70;11.88;;;;;;;9.67;67.26;96936.44;5093311;28;20101;-52
2022/03/31 01:21:52;;;;;;;16.20;7.53;;;;;;;9.79;66.02;96938.88;5093672;28;20066;-52
2022/03/31 01:24:38;;;;;;;15.75;8.25;;;;;;;9.96;64.88;96947.72;5091415;28;20060;-54
2022/03/31 01:27:23;;;;;;;16.45;8.02;;;;;;;10.02;64.87;96936.66;5093124;28;20093;-53
2022/03/31 01:30:11;;;;;;;19.13;8.68;;;;;;;9.71;65.97;96926.53;5092593;28;20043;-51
2022/03/31 01:32:56;;;;;;;18.65;8.98;;;;;;;9.78;65.89;96929.34;5093218;28;20154;-52
2022/03/31 01:35:43;;;;;;;23.98;11.25;;;;;;;9.63;66.87;96934.25;5089308;28;20120;-52
2022/03/31 01:38:27;;;;;;;24.30;11.30;;;;;;;9.51;67.48;96926.59;5092804;28;20073;-50
2022/03/31 01:41:13;;;;;;;24.45;11.85;;;;;;;9.36;67.94;96927.06;5091841;28;20063;-51
2022/03/31 01:43:57;;;;;;;22.80;11.90;;;;;;;9.52;66.76;96924.78;5092204;28;20048;-52
2022/03/31 01:46:42;;;;;;;17.05;9.20;;;;;;;9.58;66.17;96930.28;5091360;28;20047;-56
2022/03/31 01:49:27;;;;;;;17.92;8.65;;;;;;;9.84;64.90;96928.81;5092706;28;20564;-51
2022/03/31 01:52:11;;;;;;;17.33;9.52;;;;;;;10.07;64.17;96928.41;5092425;28;20448;-52
2022/03/31 01:54:56;;;;;;;23.42;10.63;;;;;;;10.21;64.47;96921.81;5077174;28;20489;-53
2022/03/31 01:57:41;;;;;;;19.85;10.35;;;;;;;10.40;63.13;96923.47;5092002;28;20124;-52
2022/03/31 02:00:25;;;;;;;18.42;9.05;;;;;;;10.37;62.93;96930.78;5092589;28;20067;-57
2022/03/31 02:03:10;;;;;;;11.90;6.50;;;;;;;10.38;62.59;96928.03;5071879;28;20104;-55
2022/03/31 02:05:54;;;;;;;14.80;6.35;;;;;;;10.49;61.62;96919.19;5091543;28;20062;-55
2022/03/31 02:09:04;;;;;;;10.80;6.60;;;;;;;10.35;62.95;96913.47;5091844;28;20080;-53
2022/03/31 02:11:49;;;;;;;21.25;11.48;;;;;;;10.43;63.79;96911.91;5092415;28;20072;-52
2022/03/31 02:14:37;;;;;;;18.75;10.50;;;;;;;10.37;63.55;96917.72;5091413;28;20051;-51
2022/03/31 02:17:21;;;;;;;18.08;9.00;;;;;;;10.22;63.81;96913.81;5092284;28;20106;-54
2022/03/31 02:20:07;;;;;;;17.50;8.35;;;;;;;10.19;63.38;96918.53;5091068;28;20062;-53
2022/03/31 02:22:52;;;;;;;18.08;9.30;;;;;;;10.10;63.77;96918.44;5092092;28;20445;-51
2022/03/31 02:25:37;;;;;;;15.10;7.53;;;;;;;10.19;63.43;96923.75;5092177;28;20146;-51
2022/03/31 02:28:22;;;;;;;11.55;5.78;;;;;;;10.28;61.26;96922.06;5091336;28;20047;-53
2022/03/31 02:35:18;;;;;;;21.67;11.25;;;;;;;9.95;65.15;96905.06;5082865;28;20050;-50
2022/03/31 02:38:04;;;;;;;19.55;10.25;;;;;;;9.83;64.46;96899.19;5092177;28;20043;-52
2022/03/31 02:40:48;;;;;;;20.63;10.27;;;;;;;9.82;65.39;96894.94;5091298;28;20051;-52
2022/03/31 02:43:33;;;;;;;22.42;10.88;;;;;;;9.61;67.21;96885.53;5091981;28;20043;-51
2022/03/31 02:46:17;;;;;;;21.10;10.07;;;;;;;9.58;66.92;96888.44;5092050;28;20044;-50
2022/03/31 02:49:04;;;;;;;18.63;9.95;;;;;;;9.59;66.99;96889.28;5090593;28;20040;-51
2022/03/31 02:51:51;;;;;;;13.40;6.90;;;;;;;9.55;66.36;96893.13;5091710;28;20410;-49
2022/03/31 02:57:39;;;;;;;18.65;9.75;;;;;;;9.36;68.17;96900.09;5091952;28;20048;-52
2022/03/31 03:00:23;;;;;;;17.48;9.30;;;;;;;9.40;67.84;96891.00;5073729;28;20187;-49
2022/03/31 03:03:10;;;;;;;17.35;10.02;;;;;;;9.53;67.07;96892.47;5090026;28;20114;-54
2022/03/31 03:05:55;;;;;;;16.85;9.00;;;;;;;9.65;67.41;96893.09;5089419;28;20051;-51
2022/03/31 03:08:39;;;;;;;23.45;11.80;;;;;;;9.45;67.64;96885.34;5088442;28;20147;-53
2022/03/31 03:11:25;;;;;;;14.70;7.53;;;;;;;9.47;65.86;96883.41;5089286;28;20063;-54
2022/03/31 03:14:12;;;;;;;16.40;8.88;;;;;;;9.44;66.39;96881.91;5088330;28;20060;-50
2022/03/31 03:16:56;;;;;;;19.77;10.05;;;;;;;9.33;67.26;96879.47;5087389;28;20040;-53
2022/03/31 03:20:05;;;;;;;19.42;9.95;;;;;;;9.35;67.54;96872.34;5088608;28;20075;-49
2022/03/31 03:22:52;;;;;;;25.25;13.15;;;;;;;9.15;69.74;96871.56;5086243;28;20040;-53
2022/03/31 03:25:36;;;;;;;30.10;12.43;;;;;;;9.15;69.29;96867.19;5089829;28;20056;-53
2022/03/31 03:28:21;;;;;;;27.00;12.95;;;;;;;9.12;68.77;96862.25;5088986;28;20036;-52
2022/03/31 03:31:06;;;;;;;19.15;9.02;;;;;;;9.07;68.45;96865.28;5089886;28;20086;-52
2022/03/31 03:33:51;;;;;;;24.95;12.60;;;;;;;9.16;69.52;96868.81;5089049;28;20048;-53
2022/03/31 03:36:36;;;;;;;24.83;10.55;;;;;;;9.24;67.97;96876.75;5089708;28;20048;-53
2022/03/31 03:39:21;;;;;;;16.45;9.23;;;;;;;9.36;66.08;96879.19;5087274;28;20433;-51
2022/03/31 03:42:07;;;;;;;19.58;9.73;;;;;;;9.36;67.83;96879.19;5088373;28;20032;-56
2022/03/31 03:44:53;;;;;;;21.20;10.95;;;;;;;9.26;68.67;96878.41;5089308;28;20063;-55
2022/03/31 03:47:38;;;;;;;21.48;11.05;;;;;;;9.15;69.33;96866.34;5089764;28;20071;-53
2022/03/31 03:50:23;;;;;;;20.73;9.70;;;;;;;9.15;68.91;96861.94;5089864;28;20044;-51
2022/03/31 03:53:08;;;;;;;20.55;10.38;;;;;;;9.08;70.03;96858.25;5090645;28;20050;-55
2022/03/31 03:55:52;;;;;;;24.27;12.07;;;;;;;9.19;69.00;96852.03;5090776;28;20165;-51
2022/03/31 03:58:37;;;;;;;18.77;9.70;;;;;;;9.06;70.00;96849.72;5089383;28;20032;-53
2022/03/31 04:01:22;;;;;;;23.77;12.63;;;;;;;9.19;68.98;96852.03;5090722;28;20048;-54
2022/03/31 04:04:06;;;;;;;27.52;11.00;;;;;;;9.08;69.69;96847.78;5090975;28;20115;-52
2022/03/31 04:06:51;;;;;;;24.80;11.63;;;;;;;9.20;68.61;96856.28;5090618;28;20058;-54
2022/03/31 04:09:36;;;;;;;29.90;13.07;;;;;;;9.12;69.61;96854.41;5090826;28;20119;-50
2022/03/31 04:12:22;;;;;;;25.35;11.82;;;;;;;9.10;69.20;96851.09;5090209;28;20055;-51
2022/03/31 04:15:08;;;;;;;27.33;13.30;;;;;;;8.94;70.96;96856.94;5091323;28;20490;-51
2022/03/31 04:17:54;;;;;;;14.27;8.02;;;;;;;8.86;70.13;96858.44;5090025;28;20094;-49
2022/03/31 04:20:38;;;;;;;21.88;11.05;;;;;;;9.02;72.01;96845.75;5089861;28;20050;-52
2022/03/31 04:23:23;;;;;;;20.55;10.68;;;;;;;9.10;73.07;96843.25;5091078;28;20101;-51
2022/03/31 04:26:08;;;;;;;29.95;13.15;;;;;;;9.12;74.41;96844.75;5089429;28;20169;-52
2022/03/31 04:28:55;;;;;;;28.20;13.70;;;;;;;8.86;74.13;96840.16;5089358;28;20406;-49
2022/03/31 04:31:44;;;;;;;24.52;12.13;;;;;;;8.74;76.66;96847.34;5089677;28;20032;-48
2022/03/31 04:34:31;;;;;;;37.15;18.15;;;;;;;8.71;75.76;96844.19;5065332;28;20036;-54
2022/03/31 04:37:15;;;;;;;22.05;10.32;;;;;;;8.95;77.43;96848.94;5093458;28;20060;-51
2022/03/31 04:40:02;;;;;;;27.88;12.50;;;;;;;8.87;76.12;96851.44;5093750;28;20048;-49
2022/03/31 04:42:47;;;;;;;22.42;12.43;;;;;;;8.61;78.14;96854.66;5093314;28;20512;-54
2022/03/31 04:45:31;;;;;;;28.48;14.27;;;;;;;8.30;77.80;96846.94;5089274;28;20101;-49
2022/03/31 04:48:16;;;;;;;23.85;11.43;;;;;;;8.61;77.22;96850.25;5089870;28;20089;-52
2022/03/31 04:51:01;;;;;;;27.10;11.38;;;;;;;8.95;74.69;96853.34;5093964;28;20044;-54
2022/03/31 04:53:46;;;;;;;18.23;10.50;;;;;;;8.84;75.46;96857.78;5107060;28;20126;-53
2022/03/31 04:56:31;;;;;;;27.63;13.75;;;;;;;8.57;75.95;96855.91;5092331;28;20436;-51
2022/03/31 04:59:16;;;;;;;28.50;13.85;;;;;;;8.74;75.06;96860.41;5093622;28;20040;-53
2022/03/31 05:02:00;;;;;;;19.60;9.88;;;;;;;8.98;74.21;96855.66;5093352;28;20054;-52
2022/03/31 05:04:45;;;;;;;21.13;11.32;;;;;;;9.09;73.28;96854.69;5077839;28;20117;-53
2022/03/31 05:07:30;;;;;;;23.73;12.20;;;;;;;9.28;72.09;96845.13;5092718;28;20052;-53
2022/03/31 05:10:14;;;;;;;28.70;12.93;;;;;;;9.12;72.58;96847.38;5093293;28;20050;-52
2022/03/31 05:12:59;;;;;;;24.90;12.32;;;;;;;9.24;72.11;96844.56;5093274;28;20097;-51
2022/03/31 05:15:44;;;;;;;30.48;13.30;;;;;;;9.53;70.96;96842.81;5093326;28;20055;-53
2022/03/31 05:18:28;;;;;;;26.52;12.90;;;;;;;9.63;70.05;96848.00;5091665;28;20097;-55
2022/03/31 05:21:13;;;;;;;17.73;9.35;;;;;;;9.52;70.25;96849.81;5093272;28;20105;-52
2022/03/31 05:23:58;;;;;;;25.70;11.07;;;;;;;9.36;71.07;96855.69;5091921;28;20068;-52
2022/03/31 05:26:43;;;;;;;22.98;9.88;;;;;;;9.54;69.72;96854.91;5092808;28;20048;-52
2022/03/31 05:29:28;;;;;;;20.13;9.10;;;;;;;9.45;69.91;96861.84;5092868;28;20067;-54
2022/03/31 05:32:13;;;;;;;24.27;12.15;;;;;;;9.19;71.22;96862.50;5120543;27;20042;-53
2022/03/31 05:34:57;;;;;;;23.63;10.85;;;;;;;9.19;70.67;96859.88;5092342;28;20522;-55
2022/03/31 05:37:42;;;;;;;20.77;9.85;;;;;;;9.34;69.83;96860.22;5091748;28;20109;-52
2022/03/31 05:40:27;;;;;;;22.05;10.77;;;;;;;9.29;70.23;96857.19;5091574;28;20044;-51
2022/03/31 05:43:12;;;;;;;30.05;14.30;;;;;;;9.36;70.42;96858.28;5091442;28;20338;-52
2022/03/31 05:45:56;;;;;;;27.00;10.73;;;;;;;9.45;69.55;96856.59;5077307;28;20044;-53
2022/03/31 05:48:41;;;;;;;27.27;11.52;;;;;;;9.42;70.23;96854.25;5092428;28;20040;-52
2022/03/31 05:51:25;;;;;;;21.55;10.65;;;;;;;9.44;70.55;96849.72;5092584;28;20089;-52
2022/03/31 05:54:11;;;;;;;27.33;13.00;;;;;;;9.28;71.16;96856.41;5091121;28;20141;-51
2022/03/31 05:56:55;;;;;;;26.23;11.30;;;;;;;9.18;70.71;96845.16;5092229;28;20105;-49
2022/03/31 05:59:40;;;;;;;26.55;13.52;;;;;;;9.31;71.00;96850.88;5092293;28;20054;-55
2022/03/31 06:02:26;;;;;;;29.35;14.25;;;;;;;9.27;70.97;96851.31;5092122;28;20048;-53
2022/03/31 06:05:12;;;;;;;34.50;15.73;;;;;;;9.31;71.14;96850.88;5092031;28;20105;-49
2022/03/31 06:07:57;;;;;;;26.92;13.00;;;;;;;9.26;70.71;96854.88;5090974;28;20070;-52
2022/03/31 06:10:42;;;;;;;29.00;14.90;;;;;;;9.24;71.06;96850.63;5091853;28;20055;-53
2022/03/31 06:13:27;;;;;;;30.13;12.82;;;;;;;9.21;71.19;96850.91;5092122;28;20394;-50
2022/03/31 06:16:13;;;;;;;22.58;10.93;;;;;;;9.37;69.83;96852.09;5091607;28;20050;-53
2022/03/31 06:18:58;;;;;;;28.92;13.05;;;;;;;9.58;69.14;96856.28;5090854;28;20748;-50
2022/03/31 06:21:42;;;;;;;21.83;11.55;;;;;;;9.52;69.77;96848.97;5091982;28;20736;-50
2022/03/31 06:24:27;;;;;;;34.08;14.38;;;;;;;9.59;69.38;96835.22;5090852;28;20048;-50
2022/03/31 06:27:12;;;;;;;24.00;11.00;;;;;;;9.57;68.90;96854.59;5092188;28;20044;-52
2022/03/31 06:29:57;;;;;;;30.75;12.77;;;;;;;9.80;68.41;96848.97;5092092;28;20044;-52
2022/03/31 06:32:42;;;;;;;22.52;10.77;;;;;;;9.62;68.78;96852.38;5091662;28;20558;-53
2022/03/31 06:35:27;;;;;;;31.65;13.40;;;;;;;9.89;67.70;96865.59;5091513;28;20051;-58
2022/03/31 06:38:12;;;;;;;28.15;12.95;;;;;;;9.66;68.29;96864.19;5087958;28;20043;-56
2022/03/31 06:41:06;;;;;;;32.80;14.27;;;;;;;9.66;69.00;96866.78;5071074;28;20037;-51
2022/03/31 06:43:51;;;;;;;31.95;14.48;;;;;;;9.63;69.07;96871.50;5071278;28;20068;-52
2022/03/31 06:46:36;;;;;;;26.38;11.65;;;;;;;9.52;69.43;96862.06;5070321;28;20056;-52
2022/03/31 06:49:21;;;;;;;26.63;12.00;;;;;;;9.48;69.71;96864.16;5071383;28;20415;-54
2022/03/31 06:52:06;;;;;;;32.85;15.77;;;;;;;9.60;69.60;96860.38;5071494;28;20357;-53
2022/03/31 06:54:50;;;;;;;46.13;18.13;;;;;;;9.49;70.55;96861.41;5070454;28;20044;-53
2022/03/31 06:57:35;;;;;;;28.58;13.80;;;;;;;9.34;70.68;96861.03;5071239;28;20068;-49
2022/03/31 07:00:20;;;;;;;30.58;14.82;;;;;;;9.27;71.49;96865.19;5071153;28;20041;-52
2022/03/31 07:03:05;;;;;;;28.30;13.73;;;;;;;9.22;72.07;96865.63;5071172;28;20491;-53
2022/03/31 07:05:50;;;;;;;36.10;17.10;;;;;;;9.39;71.63;96865.84;5089578;28;20035;-51
2022/03/31 07:08:35;;;;;;;38.72;16.35;;;;;;;9.60;70.72;96867.38;5091232;28;20048;-52
2022/03/31 07:11:19;;;;;;;43.25;17.63;;;;;;;9.68;70.09;96864.88;5091022;28;20047;-52
2022/03/31 07:14:05;;;;;;;29.98;13.90;;;;;;;9.81;69.68;96864.50;5091341;28;20047;-51
2022/03/31 07:16:50;;;;;;;40.70;17.50;;;;;;;9.66;70.02;96866.78;5085076;28;20115;-53
2022/03/31 07:19:34;;;;;;;43.33;18.35;;;;;;;10.26;69.03;96867.25;5089775;28;20047;-46
2022/03/31 07:22:19;;;;;;;43.20;19.55;;;;;;;10.24;68.21;96861.34;5090858;28;20063;-47
2022/03/31 07:25:04;;;;;;;45.05;19.35;;;;;;;10.24;67.89;96861.34;5090662;28;20082;-46
2022/03/31 07:27:50;;;;;;;37.10;17.05;;;;;;;10.07;69.26;96858.56;5090859;28;20556;-47
2022/03/31 07:30:34;;;;;;;31.27;14.32;;;;;;;9.72;70.45;96862.78;5089885;28;20055;-50
2022/03/31 07:33:22;;;;;;;39.63;17.05;;;;;;;9.21;73.07;96856.16;5090366;28;20040;-55
2022/03/31 07:36:09;;;;;;;33.15;14.60;;;;;;;9.36;72.67;96847.84;5090812;28;20072;-52
2022/03/31 07:38:53;;;;;;;27.50;13.30;;;;;;;9.30;73.12;96851.84;5090822;28;20040;-46
2022/03/31 07:41:38;;;;;;;25.70;12.45;;;;;;;9.40;72.63;96858.81;5088645;28;20044;-47
2022/03/31 07:44:22;;;;;;;25.02;11.85;;;;;;;9.33;73.31;96848.97;5086537;28;20048;-48
2022/03/31 07:47:08;;;;;;;24.02;10.52;;;;;;;9.24;74.18;96849.78;5086018;28;20498;-49
2022/03/31 07:49:53;;;;;;;20.58;9.93;;;;;;;9.54;72.74;96847.06;5087840;28;20420;-46
2022/03/31 07:52:39;;;;;;;20.40;9.35;;;;;;;9.52;72.44;96855.03;5087131;28;20043;-47
2022/03/31 07:55:24;;;;;;;24.75;10.65;;;;;;;9.18;74.19;96850.38;5088894;28;20359;-49
2022/03/31 07:58:09;;;;;;;27.60;11.15;;;;;;;9.33;74.00;96858.56;5087382;28;20040;-50
2022/03/31 08:00:54;;;;;;;30.60;13.02;;;;;;;9.54;75.84;96865.34;5089086;28;20711;-50
2022/03/31 08:03:39;;;;;;;34.90;15.32;;;;;;;9.54;74.42;96858.34;5089632;28;20040;-52
2022/03/31 08:06:24;;;;;;;21.15;10.13;;;;;;;9.45;75.00;96865.25;5090216;28;20032;-51
2022/03/31 08:09:10;;;;;;;31.77;15.27;;;;;;;9.55;73.80;96867.81;5078266;28;20411;-49
2022/03/31 08:11:55;;;;;;;25.30;11.85;;;;;;;9.63;73.16;96866.28;5093670;28;20116;-52
2022/03/31 08:14:40;;;;;;;24.33;11.05;;;;;;;9.62;72.86;96873.28;5094273;28;20044;-51
2022/03/31 08:17:26;;;;;;;35.97;13.27;;;;;;;9.65;72.67;96867.78;5093577;28;20048;-50
2022/03/31 08:20:12;;;;;;;29.65;12.63;;;;;;;9.69;72.52;96870.94;5094570;28;20123;-52
2022/03/31 08:22:57;;;;;;;25.38;12.10;;;;;;;9.69;72.88;96870.94;5079122;28;20058;-52
2022/03/31 08:25:42;;;;;;;35.40;14.98;;;;;;;9.68;73.24;96869.25;5094502;28;20052;-51
2022/03/31 08:28:31;;;;;;;23.55;11.77;;;;;;;9.68;73.66;96864.03;5094215;28;20057;-53
2022/03/31 08:31:16;;;;;;;36.38;17.98;;;;;;;9.65;74.15;96864.31;5094184;28;20052;-50
2022/03/31 08:34:02;;;;;;;25.02;11.23;;;;;;;9.71;73.63;96871.63;5093148;28;20044;-54
2022/03/31 08:36:46;;;;;;;32.05;14.45;;;;;;;9.88;73.52;96869.97;5094308;28;20044;-54
2022/03/31 08:39:32;;;;;;;24.35;11.95;;;;;;;9.81;72.61;96864.50;5093391;28;20123;-52
2022/03/31 08:42:17;;;;;;;29.15;13.32;;;;;;;10.05;71.73;96875.38;5094055;28;20055;-50
2022/03/31 08:45:03;;;;;;;26.80;12.73;;;;;;;10.05;72.01;96871.00;5092827;28;20052;-54
2022/03/31 08:47:51;;;;;;;33.95;13.27;;;;;;;10.10;72.00;96871.34;5106968;28;20067;-49
2022/03/31 08:50:36;;;;;;;33.05;14.55;;;;;;;10.04;72.61;96869.31;5092737;28;20053;-51
2022/03/31 08:53:21;;;;;;;33.58;15.45;;;;;;;9.73;75.62;96865.25;5093836;28;20093;-52
2022/03/31 08:56:06;;;;;;;43.88;19.70;;;;;;;9.57;78.96;96867.69;5094007;28;20047;-51
2022/03/31 08:58:51;;;;;;;42.78;18.58;;;;;;;9.60;78.78;96876.06;5093477;28;20061;-53
2022/03/31 09:01:39;;;;;;;34.70;15.60;;;;;;;9.53;78.48;96874.19;5092761;28;20044;-53
2022/03/31 09:04:24;;;;;;;36.55;14.82;;;;;;;9.60;75.33;96876.06;5093396;28;20040;-52
2022/03/31 09:07:10;;;;;;;26.88;13.18;;;;;;;10.02;73.79;96873.06;5093659;28;20133;-52
2022/03/31 09:09:55;;;;;;;31.10;14.50;;;;;;;9.95;74.38;96878.91;5093509;28;20117;-49
2022/03/31 09:12:40;;;;;;;25.70;13.80;;;;;;;10.07;72.84;96882.09;5093329;28;20044;-54
2022/03/31 09:15:25;;;;;;;44.17;19.92;;;;;;;10.11;74.36;96877.41;5078201;28;20093;-50
2022/03/31 09:18:10;;;;;;;27.25;12.90;;;;;;;10.04;74.62;96881.56;5092731;28;20479;-51
2022/03/31 09:20:57;;;;;;;33.20;14.32;;;;;;;10.07;76.01;96876.88;5093314;28;20122;-50
2022/03/31 09:23:44;;;;;;;39.83;18.13;;;;;;;10.02;77.36;96875.69;5093233;28;20044;-51
2022/03/31 09:26:32;;;;;;;34.58;15.50;;;;;;;9.94;76.42;96879.84;5092577;28;20635;-53
2022/03/31 09:29:19;;;;;;;37.15;17.98;;;;;;;9.88;78.46;96871.75;5093109;28;20063;-52
2022/03/31 09:32:12;;;;;;;30.88;13.00;;;;;;;9.99;75.35;96879.41;5093108;28;20131;-54
2022/03/31 09:35:06;;;;;;;33.55;16.13;;;;;;;10.19;74.82;96874.88;5092985;28;20112;-53
2022/03/31 09:37:55;;;;;;;33.92;16.00;;;;;;;10.20;76.14;96868.66;5092824;28;20044;-51
2022/03/31 09:40:40;;;;;;;42.30;18.67;;;;;;;10.07;78.41;96869.03;5093092;28;20048;-48
2022/03/31 09:43:25;;;;;;;40.53;17.90;;;;;;;9.95;79.72;96865.81;5092866;28;20044;-53
2022/03/31 09:46:37;;;;;;;34.28;17.63;;;;;;;10.10;79.82;96865.31;5092577;28;20035;-55
2022/03/31 09:49:28;;;;;;;34.38;15.23;;;;;;;9.90;80.69;96865.44;5091521;28;20044;-55
2022/03/31 09:52:12;;;;;;;33.08;15.25;;;;;;;10.08;80.39;96859.41;5091313;28;20398;-52
2022/03/31 09:54:59;;;;;;;36.92;16.80;;;;;;;10.38;78.50;96859.16;5092633;28;20374;-51
2022/03/31 09:57:46;;;;;;;28.85;14.50;;;;;;;10.23;79.74;96860.50;5089667;28;20512;-53
2022/03/31 10:00:33;;;;;;;31.88;15.27;;;;;;;10.18;79.70;96856.72;5091905;28;20052;-49
2022/03/31 10:03:17;;;;;;;26.25;13.00;;;;;;;10.52;79.78;96845.56;5091364;28;20119;-50
2022/03/31 10:06:03;;;;;;;34.63;16.75;;;;;;;10.63;78.31;96833.19;5090970;28;20078;-50
2022/03/31 10:08:49;;;;;;;30.23;13.43;;;;;;;10.44;78.07;96827.97;5092646;28;20044;-50
2022/03/31 10:11:38;;;;;;;30.23;15.23;;;;;;;9.71;82.21;96829.78;5090369;28;20047;-55
2022/03/31 10:14:49;;;;;;;22.75;11.90;;;;;;;9.91;83.43;96829.63;5085779;28;20088;-55
2022/03/31 10:17:33;;;;;;;30.42;14.52;;;;;;;10.13;83.29;96825.75;5088059;28;20039;-53
2022/03/31 10:20:21;;;;;;;28.35;14.70;;;;;;;9.90;84.04;96823.59;5090801;28;20038;-48
2022/03/31 10:26:25;;;;;;;30.65;14.65;;;;;;;10.28;83.67;96815.56;5087320;28;20406;-52
2022/03/31 10:29:15;;;;;;;27.83;12.18;;;;;;;10.17;82.34;96808.78;5091503;28;20048;-51
2022/03/31 10:32:00;;;;;;;32.88;14.73;;;;;;;10.20;84.14;96803.22;5090781;28;20051;-51
2022/03/31 10:34:48;;;;;;;29.77;15.63;;;;;;;10.56;85.67;96798.97;5091794;28;20407;-54
2022/03/31 10:37:37;;;;;;;31.23;14.63;;;;;;;10.06;84.92;96796.75;5091826;28;20052;-50
2022/03/31 10:40:31;;;;;;;26.08;13.85;;;;;;;9.81;89.13;96801.75;5076782;28;20055;-52
2022/03/31 10:43:31;;;;;;;26.38;14.05;;;;;;;10.12;87.31;96790.09;5091762;28;20072;-48
2022/03/31 10:46:20;;;;;;;33.42;16.55;;;;;;;10.38;84.01;96786.69;5075143;28;20391;-53
2022/03/31 10:49:10;;;;;;;29.63;13.38;;;;;;;10.33;85.19;96781.91;5091487;28;20079;-54
2022/03/31 10:51:56;;;;;;;27.38;12.75;;;;;;;10.52;84.32;96779.28;5089774;28;20146;-53
2022/03/31 10:54:40;;;;;;;25.23;11.98;;;;;;;10.54;86.30;96778.16;5090441;28;20116;-51
2022/03/31 10:57:25;;;;;;;27.77;12.80;;;;;;;10.44;85.87;96773.00;5090090;28;20044;-53
2022/03/31 11:00:12;;;;;;;23.55;12.18;;;;;;;10.32;85.76;96775.03;5088636;28;20115;-55
2022/03/31 11:02:57;;;;;;;23.65;12.00;;;;;;;10.04;87.85;96767.28;5073840;28;20100;-54
2022/03/31 11:05:42;;;;;;;26.17;12.73;;;;;;;10.30;87.42;96769.13;5091180;28;20118;-51
2022/03/31 11:08:27;;;;;;;25.40;12.00;;;;;;;10.70;84.86;96760.91;5091054;28;20048;-50
2022/03/31 11:11:38;;;;;;;27.88;13.50;;;;;;;10.65;87.95;96764.00;5088419;28;20048;-51
2022/03/31 11:14:23;;;;;;;28.25;13.35;;;;;;;10.49;88.05;96756.03;5090073;28;20447;-53
2022/03/31 11:17:15;;;;;;;22.15;11.50;;;;;;;10.56;87.42;96747.41;5090427;28;20040;-52
2022/03/31 11:20:12;;;;;;;27.58;12.40;;;;;;;10.94;86.57;96748.91;5089969;28;20055;-53
2022/03/31 11:23:03;;;;;;;19.10;8.80;;;;;;;11.08;85.09;96739.66;5091369;28;20486;-55
2022/03/31 11:25:48;;;;;;;21.45;11.45;;;;;;;11.39;82.44;96735.63;5091039;28;20059;-53
2022/03/31 11:28:34;;;;;;;23.95;10.88;;;;;;;11.07;83.10;96740.59;5090770;28;20044;-56
2022/03/31 11:31:20;;;;;;;21.80;11.20;;;;;;;11.52;83.21;96750.91;5089694;28;20062;-49
2022/03/31 11:34:15;;;;;;;23.70;10.45;;;;;;;11.52;84.02;96738.59;5089402;28;20044;-54
2022/03/31 11:37:00;;;;;;;21.45;10.95;;;;;;;11.29;84.54;96728.72;5089907;28;20048;-52
2022/03/31 11:39:46;;;;;;;21.85;11.32;;;;;;;11.28;84.28;96732.31;5090820;28;20501;-49
2022/03/31 11:42:31;;;;;;;21.20;10.55;;;;;;;11.66;84.08;96726.66;5092629;28;20078;-54
2022/03/31 11:45:33;;;;;;;18.98;9.57;;;;;;;11.26;83.58;96730.84;5094062;28;20112;-54
2022/03/31 11:48:23;;;;;;;15.30;7.93;;;;;;;12.15;85.94;96730.31;5094901;28;20055;-47
2022/03/31 11:51:09;;;;;;;19.48;9.75;;;;;;;13.08;81.08;96720.38;5093448;28;20092;-52
2022/03/31 11:53:53;;;;;;;17.75;9.68;;;;;;;13.10;78.05;96723.66;5094139;28;20046;-53
2022/03/31 11:56:38;;;;;;;18.85;10.05;;;;;;;12.13;82.22;96724.41;5091748;28;20040;-52
2022/03/31 11:59:22;;;;;;;15.48;7.93;;;;;;;12.48;84.55;96716.31;5094275;28;20040;-46
2022/03/31 12:02:15;;;;;;;16.95;9.25;;;;;;;13.12;78.94;96726.94;5094044;28;20129;-47
2022/03/31 12:05:02;;;;;;;14.82;6.68;;;;;;;13.04;80.25;96722.56;5094312;28;20475;-47
2022/03/31 12:07:48;;;;;;;17.40;6.97;;;;;;;13.15;79.10;96722.16;5093745;28;20040;-48
2022/03/31 12:10:33;;;;;;;11.88;7.00;;;;;;;13.47;76.98;96716.91;5094230;28;20452;-47
2022/03/31 12:13:19;;;;;;;19.20;8.57;;;;;;;13.52;76.33;96716.41;5094591;28;20044;-46
2022/03/31 12:16:09;;;;;;;12.02;6.57;;;;;;;13.55;75.81;96708.16;5094608;28;20043;-46
2022/03/31 12:18:59;;;;;;;15.88;7.78;;;;;;;13.78;73.62;96704.72;5093930;28;20036;-52
2022/03/31 12:21:48;;;;;;;16.45;8.63;;;;;;;12.78;76.85;96700.78;5093610;28;20147;-48
2022/03/31 12:24:33;;;;;;;20.48;9.85;;;;;;;11.89;81.04;96696.34;5092807;28;20095;-51
2022/03/31 12:27:19;;;;;;;19.63;9.20;;;;;;;11.57;83.78;96686.50;5092950;28;20589;-48
2022/03/31 12:30:05;;;;;;;15.10;8.30;;;;;;;11.04;86.41;96683.28;5093287;28;20085;-47
2022/03/31 12:32:50;;;;;;;16.83;8.77;;;;;;;10.91;88.47;96684.56;5093355;28;20047;-51
2022/03/31 12:35:35;;;;;;;16.35;8.65;;;;;;;10.76;88.30;96684.34;5094267;28;20052;-48
2022/03/31 12:38:20;;;;;;;15.35;8.95;;;;;;;10.54;90.54;96685.72;5093979;28;20085;-47
2022/03/31 12:41:24;;;;;;;15.88;9.13;;;;;;;10.92;89.92;96680.94;5094055;28;20101;-49
2022/03/31 12:44:16;;;;;;;21.58;8.20;;;;;;;10.68;88.62;96679.06;5092836;28;20040;-45
2022/03/31 12:47:00;;;;;;;15.45;8.05;;;;;;;10.79;88.72;96672.72;5092449;28;20457;-49
2022/03/31 12:49:45;;;;;;;16.15;7.57;;;;;;;10.61;89.51;96667.59;5093506;28;20055;-45
2022/03/31 12:52:30;;;;;;;15.57;7.57;;;;;;;10.47;91.05;96670.63;5093075;28;20056;-45
2022/03/31 12:55:15;;;;;;;14.00;7.20;;;;;;;10.51;91.72;96667.69;5092762;28;20051;-47
2022/03/31 12:58:01;;;;;;;16.60;8.30;;;;;;;10.29;93.69;96654.97;5091328;28;20483;-44
2022/03/31 13:00:52;;;;;;;12.95;8.13;;;;;;;10.34;94.88;96657.94;5091958;28;20051;-48
2022/03/31 13:03:37;;;;;;;18.50;9.63;;;;;;;10.36;94.15;96657.78;5091315;28;20123;-49